Login

reddragon
1 activity; - Last training unit 06/07/2014
06/07/2014 Show to everybody roccarespampani 54.34 768 05:34:53 9.74 Km\h
10/09/2013 Show to everybody montebello 44.42 490 01:44:12 25.58 Km\h
03/09/2013 Show to everybody montebelloghiaccio 47.44 421 02:01:49 23.37 Km\h
04/08/2013 Show to everybody 5 65.06 1198 03:46:55 17.2 Km\h
03/08/2013 Show to everybody 2 34.45 622 01:27:14 23.69 Km\h
02/08/2013 Show to everybody 1 27.68 751 01:57:50 14.09 Km\h
29/07/2013 Show to everybody 3 91.99 793 03:24:47 26.95 Km\h
28/07/2013 Show to everybody 4 50.13 814 02:53:09 17.37 Km\h
04/05/2013 Show to everybody Strada Provinciale 44, Tarquinia 37.06 580 02:32:45 14.56 Km\h 29er
18/04/2013 Show to everybody OGGI 51.34 735 03:13:48 15.9 Km\h
05/03/2013 Show to everybody ripamaialaaaaaa 64.39 1026 03:02:58 21.12 Km\h
03/03/2013 Show to everybody orvieto wine marathon 37.7 1380 02:48:54 13.39 Km\h
06/02/2013 Show to everybody montebello 56.91 511 02:21:47 24.08 Km\h 29er
27/01/2013 Show to everybody 27.01.13 60.21 784 03:14:29 18.57 Km\h 29er
22/01/2013 Show to everybody ghiaccio 51.03 529 02:17:06 22.33 Km\h 29er
07/12/2012 Show to everybody 0211 42.93 539 01:54:00 22.6 Km\h
24/11/2012 Show to everybody 2411 47.75 683 03:14:42 14.72 Km\h
20/11/2012 Show to everybody 11 56.78 691 02:42:22 20.98 Km\h
18/11/2012 Show to everybody 1811 52.02 488 02:13:23 23.4 Km\h
14/11/2012 Show to everybody 1411 50.76 733 02:28:48 20.47 Km\h
10/11/2012 Show to everybody tarquiniasantamarinellaallumieretarquinia 5.99 135 00:12:26 28.89 Km\h 29er
10/11/2012 Show to everybody 0911 72.93 1128 04:15:27 17.13 Km\h
13/10/2012 Show to everybody fangaccia 59.17 835 03:23:02 17.49 Km\h 29er
08/10/2012 Show to everybody claudianoooo 50.96 827 02:58:44 17.11 Km\h 29er
05/10/2012 Show to everybody giretto caludiano 39.34 557 02:09:47 18.19 Km\h 29er
29/09/2012 Show to everybody galleria 47.71 726 03:11:04 14.98 Km\h 29er
22/09/2012 Show to everybody oriolo 72.82 819 03:59:57 18.21 Km\h 29er
15/09/2012 Show to everybody 24h 14.68 151 00:38:19 22.98 Km\h 29er
15/09/2012 Show to everybody voglia di strada 13.23 138 00:40:00 19.85 Km\h 29er
11/09/2012 Show to everybody giroooooooclassico 50.64 834 02:58:55 16.98 Km\h 29er
06/09/2012 Show to everybody casteluccio 29.9 877 02:21:19 12.69 Km\h 29er
03/09/2012 Show to everybody capopalinuro 27.88 465 01:53:28 14.74 Km\h 29er
30/08/2012 Show to everybody tolfetta 38.27 704 02:54:01 13.19 Km\h 29er
28/08/2012 Show to everybody tarquinia allumiere tolfa santa severa tarquinia 46.58 1092 03:09:56 14.71 Km\h 29er
25/08/2012 Show to everybody GIRETTO 29.32 1068 02:09:10 13.62 Km\h 29er
24/08/2012 Show to everybody GIRELLO 68.1 852 03:08:25 21.69 Km\h 29er
14/08/2012 Show to everybody TARQUINIA ALLUMIERE TOLFA TARQUINIA 58.05 1152 03:34:36 16.23 Km\h 29er
13/08/2012 Show to everybody ALBERATAAAAA 11.27 460 00:40:28 16.71 Km\h 29er
04/08/2012 Show to everybody girone 30.15 814 02:15:03 13.39 Km\h 29er
03/08/2012 Show to everybody girello 45.25 658 02:07:49 21.24 Km\h 29er
31/07/2012 Show to everybody gitarella 20.05 418 01:01:26 19.59 Km\h 29er
21/07/2012 Show to everybody er formaggiaro 54.37 802 03:56:11 13.81 Km\h
19/07/2012 Show to everybody su e giu 29.69 649 01:37:20 18.3 Km\h 29er
14/07/2012 Show to everybody santamarinella tolfa santasevera 53.98 857 03:20:57 16.12 Km\h 29er
11/07/2012 Show to everybody montebello 43.78 452 01:48:24 24.23 Km\h 29er
06/07/2012 Show to everybody cascate 30.9 342 02:09:53 14.27 Km\h 29er
05/07/2012 Show to everybody ghiaccio 43.51 524 01:55:16 22.65 Km\h 29er
02/07/2012 Show to everybody alberata 16.85 523 00:56:36 17.86 Km\h 29er
30/06/2012 Show to everybody eremo montefogliano 37.68 1522 02:58:45 12.65 Km\h 29er
26/06/2012 Show to everybody tarquiniaallumiere 61.27 1045 03:13:06 19.04 Km\h 29er
24/06/2012 Show to everybody monteromano viterbo 43.55 437 03:04:25 14.17 Km\h 29er
23/06/2012 Show to everybody monte fogliano 35.11 1491 03:11:38 10.99 Km\h 29er
22/06/2012 Show to everybody la maledizione dell\'alberta 29.44 481 00:57:10 30.9 Km\h 29er
19/06/2012 Show to everybody girin giretto 42 687 02:57:38 14.19 Km\h 29er
16/06/2012 Show to everybody civita tre dune monteromano 42.03 869 02:35:08 16.26 Km\h 29er
11/06/2012 Show to everybody agraria 40.81 616 02:30:37 16.26 Km\h 29er
09/06/2012 Show to everybody pistino tre cancelli santa marinella 44.37 986 03:32:17 12.54 Km\h 29er
05/06/2012 Show to everybody prova circuito 44.57 782 02:22:41 18.74 Km\h 29er
03/06/2012 Show to everybody giringirello 50.91 949 03:42:36 13.72 Km\h 29er
31/05/2012 Show to everybody mezzo argento 38.21 588 02:13:09 17.22 Km\h 29er
26/05/2012 Show to everybody piantangeli 49 811 03:02:26 16.11 Km\h 29er
23/05/2012 Show to everybody santamarinella tolfa 54.49 643 02:54:48 18.7 Km\h 29er
17/05/2012 Show to everybody giro11 30.84 576 01:37:48 18.92 Km\h
16/05/2012 Show to everybody giro6 84.62 1046 03:39:47 23.1 Km\h
12/05/2012 Show to everybody giro5 55.85 1154 03:55:41 14.22 Km\h
10/05/2012 Show to everybody giro3 21.84 189 00:48:30 27.01 Km\h
10/05/2012 Show to everybody giro4 46.37 676 02:44:12 16.95 Km\h
09/05/2012 Show to everybody giro2 33.7 776 02:04:08 16.29 Km\h
06/05/2012 Show to everybody giro1 41.88 616 03:01:55 13.81 Km\h
02/05/2012 Show to everybody giro12 71.88 575 03:06:03 23.18 Km\h
Training units 0
Kilometers 0 Km
Vertical gain 0 mt
Hours of riding 00:00:00
Average speed 0 Km/h
average HR 169
Points 82
Live Tracking »

29er 106:58:52 1796.73 Km

 
If you stop following this users you will not be able to compare your trainings with his

Now you follow this users and you can compare your trainings


MTB-Forum.it | 2012-2020 Training Camp v.1.6 rev 05